createdAt,value
2019-01-28T00:02:25.537Z,3.51
2019-01-28T00:04:57.734Z,3.41
2019-01-28T00:07:47.969Z,3.51
2019-01-28T00:10:19.327Z,3.43
2019-01-28T00:12:50.468Z,3.35
2019-01-28T00:15:21.598Z,3.36
2019-01-28T00:17:52.706Z,3.34
2019-01-28T00:20:23.772Z,3.29
2019-01-28T00:22:54.974Z,3.24
2019-01-28T00:25:26.068Z,3.12
2019-01-28T00:27:57.191Z,3.11
2019-01-28T00:30:28.312Z,3.08
2019-01-28T00:32:59.438Z,2.94
2019-01-28T00:35:30.730Z,2.98
2019-01-28T00:38:01.877Z,3.00
2019-01-28T00:40:33.037Z,2.69
2019-01-28T00:43:04.300Z,2.74
2019-01-28T00:45:35.651Z,2.34
2019-01-28T00:48:06.977Z,2.28
2019-01-28T00:50:38.317Z,2.33
2019-01-28T00:53:09.378Z,2.30
2019-01-28T00:55:40.584Z,2.16
2019-01-28T00:58:11.728Z,2.27
2019-01-28T01:00:42.846Z,2.16
2019-01-28T01:03:14.018Z,2.16
2019-01-28T01:05:45.174Z,2.15
2019-01-28T01:08:16.322Z,2.04
2019-01-28T01:10:47.462Z,1.93
2019-01-28T01:13:18.494Z,2.02
2019-01-28T01:15:49.692Z,2.18
2019-01-28T01:18:21.109Z,2.04
2019-01-28T01:20:52.379Z,2.09
2019-01-28T01:23:23.612Z,2.04
2019-01-28T01:25:54.694Z,2.06
2019-01-28T01:28:25.842Z,2.08
2019-01-28T01:30:56.993Z,1.92
2019-01-28T01:33:28.002Z,1.91
2019-01-28T01:35:59.029Z,1.91
2019-01-28T01:38:30.074Z,1.78
2019-01-28T01:41:01.296Z,1.70
2019-01-28T01:43:32.358Z,1.70
2019-01-28T01:46:03.439Z,1.78
2019-01-28T01:48:34.518Z,1.60
2019-01-28T01:51:05.727Z,1.66
2019-01-28T01:53:36.852Z,1.71
2019-01-28T01:56:08.022Z,1.67
2019-01-28T01:58:39.126Z,1.61
2019-01-28T02:01:10.453Z,1.48
2019-01-28T02:03:41.512Z,1.39
2019-01-28T02:06:13.930Z,1.46
2019-01-28T02:08:44.972Z,1.34
2019-01-28T02:11:16.205Z,1.37
2019-01-28T02:13:47.383Z,1.26
2019-01-28T02:16:18.799Z,1.25
2019-01-28T02:18:49.923Z,1.35
2019-01-28T02:21:21.213Z,1.46
2019-01-28T02:23:52.368Z,1.39
2019-01-28T02:26:23.466Z,1.39
2019-01-28T02:28:54.506Z,1.31
2019-01-28T02:31:25.590Z,1.34
2019-01-28T02:33:56.638Z,1.27
2019-01-28T02:36:27.765Z,1.16
2019-01-28T02:38:58.896Z,1.16
2019-01-28T02:41:30.060Z,1.20
2019-01-28T02:44:01.089Z,1.21
2019-01-28T02:46:32.215Z,1.32
2019-01-28T02:49:03.200Z,1.22
2019-01-28T02:51:34.269Z,1.35
2019-01-28T02:54:05.584Z,1.41
2019-01-28T02:56:36.762Z,1.21
2019-01-28T02:59:09.199Z,1.23
2019-01-28T03:01:40.351Z,1.27
2019-01-28T03:04:11.511Z,1.28
2019-01-28T03:06:42.703Z,1.33
2019-01-28T03:09:13.828Z,1.40
2019-01-28T03:11:44.897Z,1.38
2019-01-28T03:14:15.894Z,1.61
2019-01-28T03:16:47.081Z,1.35
2019-01-28T03:19:18.276Z,1.40
2019-01-28T03:21:49.366Z,1.29
2019-01-28T03:24:20.527Z,1.29
2019-01-28T03:26:51.564Z,1.34
2019-01-28T03:29:22.804Z,1.15
2019-01-28T03:31:53.850Z,1.13
2019-01-28T03:34:24.958Z,1.18
2019-01-28T03:36:55.974Z,1.15
2019-01-28T03:39:27.956Z,1.13
2019-01-28T03:44:25.640Z,1.24
2019-01-28T03:46:56.711Z,1.21
2019-01-28T03:49:27.844Z,1.15
2019-01-28T03:52:00.173Z,1.19
2019-01-28T03:54:31.573Z,1.15
2019-01-28T03:57:03.080Z,1.24
2019-01-28T03:59:34.224Z,1.16
2019-01-28T04:02:05.670Z,1.15
2019-01-28T04:04:37.068Z,1.26
2019-01-28T04:07:08.200Z,1.23
2019-01-28T04:09:39.353Z,1.26
2019-01-28T04:12:10.688Z,1.37
2019-01-28T04:14:41.778Z,1.35
2019-01-28T04:17:12.880Z,1.48
2019-01-28T04:19:44.014Z,1.46
2019-01-28T04:22:17.396Z,1.44
2019-01-28T04:24:49.794Z,1.58
2019-01-28T04:27:21.018Z,1.54
2019-01-28T04:29:52.182Z,1.63
2019-01-28T04:32:23.235Z,1.61
2019-01-28T04:34:54.341Z,1.53
2019-01-28T04:37:25.591Z,1.54
2019-01-28T04:39:56.646Z,1.61
2019-01-28T04:42:27.865Z,1.66
2019-01-28T04:44:58.958Z,1.64
2019-01-28T04:47:30.086Z,1.67
2019-01-28T04:50:01.292Z,1.76
2019-01-28T04:52:32.464Z,1.78
2019-01-28T04:55:03.754Z,1.77
2019-01-28T04:57:34.963Z,1.84
2019-01-28T05:00:12.551Z,1.87
2019-01-28T05:02:43.794Z,1.81
2019-01-28T05:05:15.268Z,1.67
2019-01-28T05:07:46.847Z,1.71
2019-01-28T05:10:18.223Z,1.72
2019-01-28T05:12:49.310Z,1.65
2019-01-28T05:15:21.073Z,1.72
2019-01-28T05:17:53.237Z,1.64
2019-01-28T05:20:25.003Z,1.63
2019-01-28T05:22:56.127Z,1.65
2019-01-28T05:25:27.232Z,1.65
2019-01-28T05:27:58.475Z,1.59
2019-01-28T05:30:29.636Z,1.63
2019-01-28T05:33:00.782Z,1.63
2019-01-28T05:35:31.926Z,1.71
2019-01-28T05:38:03.000Z,1.70
2019-01-28T05:40:34.369Z,1.71
2019-01-28T05:43:05.557Z,1.75
2019-01-28T05:45:36.661Z,1.68
2019-01-28T05:48:07.745Z,1.64
2019-01-28T05:50:38.928Z,1.67
2019-01-28T05:53:10.090Z,1.66
2019-01-28T05:55:41.184Z,1.63
2019-01-28T05:58:12.266Z,1.61
2019-01-28T06:00:45.634Z,1.59
2019-01-28T06:03:16.727Z,1.62
2019-01-28T06:05:47.859Z,1.69
2019-01-28T06:08:18.941Z,1.59
2019-01-28T06:10:50.148Z,1.60
2019-01-28T06:13:21.210Z,1.57
2019-01-28T06:15:52.268Z,1.71
2019-01-28T06:18:23.492Z,1.69
2019-01-28T06:20:54.767Z,1.63
2019-01-28T06:23:25.863Z,1.60
2019-01-28T06:25:57.017Z,1.61
2019-01-28T06:28:28.110Z,1.65
2019-01-28T06:30:59.147Z,1.67
2019-01-28T06:33:30.246Z,1.68
2019-01-28T06:36:01.420Z,1.71
2019-01-28T06:38:32.449Z,1.66
2019-01-28T06:41:03.605Z,1.66
2019-01-28T06:43:34.862Z,1.68
2019-01-28T06:46:06.000Z,1.76
2019-01-28T06:48:37.097Z,1.81
2019-01-28T06:51:08.275Z,1.78
2019-01-28T06:53:39.361Z,1.79
2019-01-28T06:56:10.494Z,1.81
2019-01-28T06:58:41.700Z,1.88
2019-01-28T07:01:12.774Z,1.97
2019-01-28T07:03:43.780Z,1.68
2019-01-28T07:06:15.005Z,1.65
2019-01-28T07:08:46.155Z,1.66
2019-01-28T07:11:17.395Z,1.74
2019-01-28T07:13:48.591Z,1.87
2019-01-28T07:16:19.719Z,1.93
2019-01-28T07:18:50.857Z,1.63
2019-01-28T07:21:22.094Z,1.57
2019-01-28T07:23:53.372Z,1.45
2019-01-28T07:26:24.533Z,1.43
2019-01-28T07:28:55.665Z,1.50
2019-01-28T07:31:26.806Z,1.60
2019-01-28T07:33:57.915Z,1.56
2019-01-28T07:36:29.014Z,1.69
2019-01-28T07:39:00.034Z,1.59
2019-01-28T07:41:31.159Z,1.57
2019-01-28T07:44:02.437Z,1.62
2019-01-28T07:46:33.620Z,1.65
2019-01-28T07:49:04.737Z,1.82
2019-01-28T07:51:35.807Z,1.76
2019-01-28T07:54:07.064Z,1.90
2019-01-28T07:56:38.199Z,1.85
2019-01-28T07:59:09.199Z,1.88
2019-01-28T08:01:40.464Z,1.81
2019-01-28T08:04:11.718Z,1.84
2019-01-28T08:06:42.954Z,1.81
2019-01-28T08:09:14.208Z,1.84
2019-01-28T08:11:45.385Z,1.80
2019-01-28T08:14:16.583Z,1.83
2019-01-28T08:16:47.737Z,1.81
2019-01-28T08:19:18.917Z,1.86
2019-01-28T08:21:50.038Z,1.74
2019-01-28T08:24:21.191Z,1.88
2019-01-28T08:26:52.463Z,1.77
2019-01-28T08:29:23.536Z,1.80
2019-01-28T08:31:55.279Z,1.80
2019-01-28T08:34:26.461Z,1.85
2019-01-28T08:36:57.525Z,1.79
2019-01-28T08:39:28.649Z,1.81
2019-01-28T08:41:59.805Z,1.80
2019-01-28T08:44:30.897Z,1.74
2019-01-28T08:47:01.904Z,1.85
2019-01-28T08:49:33.054Z,1.90
2019-01-28T08:52:04.292Z,1.88
2019-01-28T08:54:35.511Z,1.80
2019-01-28T08:57:06.625Z,1.80
2019-01-28T08:59:37.874Z,1.83
2019-01-28T09:02:09.393Z,1.92
2019-01-28T09:04:40.548Z,2.01
2019-01-28T09:07:11.995Z,2.13
2019-01-28T09:09:43.341Z,2.19
2019-01-28T09:12:14.390Z,2.18
2019-01-28T09:14:45.559Z,2.07
2019-01-28T09:17:16.612Z,1.95
2019-01-28T09:19:47.775Z,2.14
2019-01-28T09:22:18.745Z,2.18
2019-01-28T09:24:50.067Z,2.04
2019-01-28T09:27:21.620Z,2.08
2019-01-28T09:29:52.894Z,2.04
2019-01-28T09:32:24.080Z,2.17
2019-01-28T09:34:55.170Z,2.16
2019-01-28T09:37:26.501Z,2.06
2019-01-28T09:39:57.664Z,2.33
2019-01-28T09:42:28.795Z,2.28
2019-01-28T09:44:59.855Z,2.32
2019-01-28T09:47:31.112Z,2.37
2019-01-28T09:50:02.188Z,2.59
2019-01-28T09:52:33.330Z,2.42
2019-01-28T09:55:05.140Z,2.21
2019-01-28T09:57:36.278Z,2.35
2019-01-28T10:00:12.939Z,2.35
2019-01-28T10:02:44.097Z,2.20
2019-01-28T10:05:15.951Z,2.22
2019-01-28T10:07:47.099Z,2.32
2019-01-28T10:10:18.436Z,2.34
2019-01-28T10:12:49.573Z,2.49
2019-01-28T10:15:21.216Z,2.18
2019-01-28T10:17:52.344Z,1.95
2019-01-28T10:20:26.119Z,1.92
2019-01-28T10:22:57.246Z,2.10
2019-01-28T10:25:28.497Z,1.97
2019-01-28T10:27:59.721Z,2.13
2019-01-28T10:30:33.105Z,2.39
2019-01-28T10:33:04.858Z,2.65
2019-01-28T10:35:36.622Z,2.70
2019-01-28T10:38:08.384Z,2.86
2019-01-28T10:40:41.965Z,2.28
2019-01-28T10:43:13.175Z,2.86
2019-01-28T10:45:44.677Z,2.94
2019-01-28T10:48:16.019Z,3.24
2019-01-28T10:50:47.163Z,2.74
2019-01-28T10:53:18.306Z,2.99
2019-01-28T10:55:49.588Z,2.69
2019-01-28T10:58:20.773Z,2.94
2019-01-28T11:00:52.658Z,2.96
2019-01-28T11:03:25.889Z,2.71
2019-01-28T11:05:57.195Z,3.18
2019-01-28T11:08:28.386Z,3.18
2019-01-28T11:10:59.622Z,2.96
2019-01-28T11:13:30.732Z,2.88
2019-01-28T11:16:02.031Z,3.31
2019-01-28T11:18:33.498Z,2.90
2019-01-28T11:21:04.721Z,2.67
2019-01-28T11:23:36.008Z,2.82
2019-01-28T11:26:07.314Z,3.25
2019-01-28T11:28:38.444Z,3.53
2019-01-28T11:31:12.486Z,3.25
2019-01-28T11:33:43.636Z,3.32
2019-01-28T11:36:14.919Z,2.54
2019-01-28T11:38:46.151Z,2.86
2019-01-28T11:41:17.295Z,2.60
2019-01-28T11:43:48.601Z,2.72
2019-01-28T11:46:19.819Z,2.82
2019-01-28T11:48:51.190Z,2.94
2019-01-28T11:51:22.345Z,2.79
2019-01-28T11:53:53.345Z,2.57
2019-01-28T11:56:24.470Z,2.45
2019-01-28T11:58:55.534Z,2.70
2019-01-28T12:01:31.452Z,3.11
2019-01-28T12:04:02.698Z,3.04
2019-01-28T12:06:34.139Z,3.30
2019-01-28T12:09:09.098Z,3.29
2019-01-28T12:11:40.209Z,3.25
2019-01-28T12:14:11.356Z,3.13
2019-01-28T12:16:42.515Z,2.97
2019-01-28T12:19:16.394Z,3.24
2019-01-28T12:21:47.683Z,3.36
2019-01-28T12:24:18.867Z,3.37
2019-01-28T12:26:51.167Z,3.45
2019-01-28T12:29:22.412Z,2.99
2019-01-28T12:31:53.559Z,2.74
2019-01-28T12:34:24.807Z,2.87
2019-01-28T12:36:55.878Z,3.43
2019-01-28T12:39:27.052Z,4.34
2019-01-28T12:41:58.084Z,5.04
2019-01-28T12:44:29.136Z,6.68
2019-01-28T12:47:00.634Z,6.76
2019-01-28T12:49:31.865Z,6.18
2019-01-28T12:52:03.052Z,4.42
2019-01-28T12:54:34.191Z,3.64
2019-01-28T12:57:05.450Z,4.20
2019-01-28T12:59:36.590Z,3.97
2019-01-28T13:02:07.830Z,3.85
2019-01-28T13:04:42.277Z,4.74
2019-01-28T13:07:11.807Z,4.45
2019-01-28T13:09:43.232Z,3.70
2019-01-28T13:12:14.399Z,3.41
2019-01-28T13:14:46.576Z,3.97
2019-01-28T13:17:17.720Z,3.35
2019-01-28T13:19:48.794Z,3.50
2019-01-28T13:22:19.927Z,3.78
2019-01-28T13:24:51.113Z,4.18
2019-01-28T13:27:22.245Z,3.65
2019-01-28T13:29:53.378Z,3.12
2019-01-28T13:32:24.583Z,2.86
2019-01-28T13:34:55.607Z,2.86
2019-01-28T13:37:26.905Z,2.97
2019-01-28T13:39:58.089Z,2.85
2019-01-28T13:42:29.228Z,2.92
2019-01-28T13:45:00.370Z,2.82
2019-01-28T13:47:31.543Z,2.75
2019-01-28T13:50:02.878Z,2.92
2019-01-28T13:52:34.036Z,2.70
2019-01-28T13:55:05.910Z,2.80
2019-01-28T13:57:37.106Z,2.60
2019-01-28T14:00:13.004Z,2.76
2019-01-28T14:02:44.187Z,2.70
2019-01-28T14:05:15.575Z,2.64
2019-01-28T14:07:47.062Z,2.78
2019-01-28T14:10:18.744Z,2.69
2019-01-28T14:12:49.978Z,2.76
2019-01-28T14:15:29.803Z,2.75
2019-01-28T14:18:00.891Z,2.90
2019-01-28T14:20:33.143Z,2.92
2019-01-28T14:23:04.500Z,3.18
2019-01-28T14:25:35.659Z,3.43
2019-01-28T14:28:08.207Z,3.27
2019-01-28T14:30:41.482Z,3.62
2019-01-28T14:33:12.834Z,3.58
2019-01-28T14:35:43.987Z,3.58
2019-01-28T14:38:15.627Z,3.89
2019-01-28T14:40:47.591Z,3.96
2019-01-28T14:43:18.739Z,4.15
2019-01-28T14:45:49.865Z,3.58
2019-01-28T14:48:21.007Z,3.77
2019-01-28T14:50:52.163Z,3.59
2019-01-28T14:53:23.311Z,2.89
2019-01-28T14:55:54.499Z,3.14
2019-01-28T14:58:25.642Z,2.85
2019-01-28T15:00:56.776Z,2.38
2019-01-28T15:03:27.846Z,2.22
2019-01-28T15:05:58.905Z,2.21
2019-01-28T15:08:30.017Z,2.26
2019-01-28T15:11:01.290Z,2.33
2019-01-28T15:13:32.482Z,2.25
2019-01-28T15:16:08.935Z,2.11
2019-01-28T15:18:36.560Z,2.05
2019-01-28T15:21:07.850Z,1.78
2019-01-28T15:23:38.907Z,1.71
2019-01-28T15:26:10.096Z,1.82
2019-01-28T15:28:41.135Z,1.85
2019-01-28T15:31:12.204Z,1.86
2019-01-28T15:33:43.355Z,1.91
2019-01-28T15:36:14.487Z,1.82
2019-01-28T15:38:46.570Z,1.71
2019-01-28T15:41:17.763Z,1.74
2019-01-28T15:43:48.938Z,1.64
2019-01-28T15:46:20.067Z,1.65
2019-01-28T15:48:51.147Z,1.65
2019-01-28T15:51:22.346Z,1.76
2019-01-28T15:53:53.520Z,1.81
2019-01-28T15:56:24.538Z,1.55
2019-01-28T15:58:55.698Z,1.59
2019-01-28T16:01:26.884Z,1.67
2019-01-28T16:03:57.941Z,1.47
2019-01-28T16:06:28.997Z,1.53
2019-01-28T16:09:00.026Z,1.50
2019-01-28T16:11:31.189Z,1.55
2019-01-28T16:14:02.487Z,1.53
2019-01-28T16:16:33.852Z,1.55
2019-01-28T16:19:04.996Z,1.52
2019-01-28T16:21:36.220Z,1.53
2019-01-28T16:24:08.546Z,1.45
2019-01-28T16:26:39.690Z,1.44
2019-01-28T16:29:10.833Z,1.40
2019-01-28T16:31:43.479Z,1.34
2019-01-28T16:34:14.827Z,1.23
2019-01-28T16:36:45.970Z,1.15
2019-01-28T16:39:17.047Z,1.13
2019-01-28T16:41:48.174Z,1.18
2019-01-28T16:44:20.378Z,1.18
2019-01-28T16:46:51.494Z,1.06
2019-01-28T16:49:22.601Z,0.90
2019-01-28T16:51:53.657Z,0.69
2019-01-28T16:54:24.728Z,0.76
2019-01-28T16:56:55.789Z,0.71
2019-01-28T16:59:26.888Z,0.84
2019-01-28T17:01:57.866Z,0.78
2019-01-28T17:04:29.041Z,0.67
2019-01-28T17:07:00.031Z,0.56
2019-01-28T17:09:31.190Z,0.43
2019-01-28T17:12:02.281Z,0.58
2019-01-28T17:14:33.465Z,0.53
2019-01-28T17:17:04.618Z,0.60
2019-01-28T17:19:35.952Z,0.57
2019-01-28T17:22:07.122Z,0.44
2019-01-28T17:24:38.286Z,0.59
2019-01-28T17:27:09.456Z,0.61
2019-01-28T17:29:40.613Z,0.56
2019-01-28T17:32:11.771Z,0.67
2019-01-28T17:34:43.047Z,0.70
2019-01-28T17:37:14.213Z,0.67
2019-01-28T17:39:45.356Z,0.59
2019-01-28T17:42:16.423Z,0.56
2019-01-28T17:44:47.424Z,0.62
2019-01-28T17:47:18.493Z,0.51
2019-01-28T17:49:49.746Z,0.42
2019-01-28T17:52:20.807Z,0.55
2019-01-28T17:54:51.965Z,0.54
2019-01-28T17:57:23.032Z,0.40
2019-01-28T17:59:54.181Z,0.28
2019-01-28T18:02:25.235Z,0.34
2019-01-28T18:04:57.300Z,0.39
2019-01-28T18:07:28.371Z,0.28
2019-01-28T18:09:59.468Z,0.19
2019-01-28T18:12:30.636Z,0.16
2019-01-28T18:15:01.665Z,0.32
2019-01-28T18:17:33.954Z,0.19
2019-01-28T18:20:07.235Z,0.33
2019-01-28T18:22:45.969Z,0.44
2019-01-28T18:25:23.764Z,0.30
2019-01-28T18:27:55.185Z,0.28
2019-01-28T18:30:35.577Z,0.27
2019-01-28T18:33:07.610Z,0.33
2019-01-28T18:35:38.754Z,0.29
2019-01-28T18:38:09.891Z,0.27
2019-01-28T18:40:41.233Z,0.43
2019-01-28T18:43:12.523Z,0.32
2019-01-28T18:45:43.672Z,0.39
2019-01-28T18:48:15.067Z,0.44
2019-01-28T18:50:46.228Z,0.43
2019-01-28T18:53:17.330Z,0.41
2019-01-28T18:55:48.397Z,0.49
2019-01-28T18:58:19.552Z,0.45
2019-01-28T19:00:51.824Z,0.53
2019-01-28T19:03:22.933Z,0.58
2019-01-28T19:06:08.062Z,0.64
2019-01-28T19:09:01.269Z,0.62
2019-01-28T19:11:46.325Z,0.70
2019-01-28T19:14:28.797Z,0.65
2019-01-28T19:17:24.989Z,0.70
2019-01-28T19:20:13.701Z,0.72
2019-01-28T19:22:44.854Z,0.63
2019-01-28T19:25:16.094Z,0.67
2019-01-28T19:27:47.354Z,0.59
2019-01-28T19:30:20.655Z,0.61
2019-01-28T19:32:51.866Z,0.71
2019-01-28T19:35:23.023Z,0.79
2019-01-28T19:37:54.208Z,0.79
2019-01-28T19:40:25.340Z,0.65
2019-01-28T19:42:56.418Z,0.73
2019-01-28T19:45:27.756Z,0.68
2019-01-28T19:47:59.115Z,0.65
2019-01-28T19:50:30.249Z,0.73
2019-01-28T19:53:02.395Z,0.84
2019-01-28T19:55:33.696Z,0.85
2019-01-28T19:58:05.094Z,0.89
2019-01-28T20:00:36.221Z,0.95
2019-01-28T20:03:09.227Z,1.01
2019-01-28T20:05:40.506Z,0.94
2019-01-28T20:08:11.660Z,1.13
2019-01-28T20:10:44.355Z,0.94
2019-01-28T20:13:15.690Z,1.12
2019-01-28T20:15:46.835Z,0.93
2019-01-28T20:18:17.991Z,0.98
2019-01-28T20:20:49.040Z,0.96
2019-01-28T20:23:20.202Z,1.01
2019-01-28T20:25:51.288Z,1.09
2019-01-28T20:28:22.408Z,1.04
2019-01-28T20:30:53.507Z,1.16
2019-01-28T20:33:24.683Z,1.10
2019-01-28T20:35:55.893Z,1.14
2019-01-28T20:38:27.000Z,1.28
2019-01-28T20:40:58.140Z,1.27
2019-01-28T20:43:29.234Z,1.34
2019-01-28T20:46:00.416Z,1.15
2019-01-28T20:48:31.503Z,1.15
2019-01-28T20:51:03.665Z,1.33
2019-01-28T20:53:34.767Z,1.28
2019-01-28T20:56:06.200Z,1.29
2019-01-28T20:58:37.362Z,1.31
2019-01-28T21:01:09.000Z,1.33
2019-01-28T21:03:40.094Z,1.37
2019-01-28T21:06:11.257Z,1.47
2019-01-28T21:08:42.853Z,1.31
2019-01-28T21:11:15.175Z,1.42
2019-01-28T21:13:47.316Z,1.32
2019-01-28T21:16:19.782Z,1.39
2019-01-28T21:18:51.986Z,1.32
2019-01-28T21:21:22.976Z,1.19
2019-01-28T21:23:54.087Z,1.31
2019-01-28T21:26:25.121Z,1.36
2019-01-28T21:28:56.195Z,1.31
2019-01-28T21:31:27.352Z,1.47
2019-01-28T21:33:58.378Z,1.43
2019-01-28T21:36:49.689Z,1.36
2019-01-28T21:39:20.816Z,1.39
2019-01-28T21:41:52.018Z,1.32
2019-01-28T21:44:23.214Z,1.48
2019-01-28T21:46:54.342Z,1.41
2019-01-28T21:49:25.584Z,1.31
2019-01-28T21:51:56.833Z,1.39
2019-01-28T21:54:27.900Z,1.39
2019-01-28T21:56:59.214Z,1.47
2019-01-28T21:59:30.486Z,1.47
2019-01-28T22:02:01.653Z,1.49
2019-01-28T22:04:32.812Z,1.42
2019-01-28T22:07:04.294Z,1.34
2019-01-28T22:09:35.435Z,1.38
2019-01-28T22:12:06.965Z,1.31
2019-01-28T22:14:38.162Z,1.28
2019-01-28T22:17:09.368Z,1.33
2019-01-28T22:19:40.410Z,1.31
2019-01-28T22:22:11.463Z,1.22
2019-01-28T22:24:42.629Z,1.33
2019-01-28T22:27:13.760Z,1.46
2019-01-28T22:29:44.825Z,1.22
2019-01-28T22:32:15.824Z,1.16
2019-01-28T22:34:47.932Z,0.89
2019-01-28T22:37:19.365Z,0.71
2019-01-28T22:39:50.523Z,0.70
2019-01-28T22:42:21.847Z,0.91
2019-01-28T22:44:52.942Z,0.59
2019-01-28T22:47:23.959Z,0.62
2019-01-28T22:49:55.066Z,0.59
2019-01-28T22:52:26.244Z,0.60
2019-01-28T22:54:57.241Z,0.57
2019-01-28T22:57:28.398Z,0.53
2019-01-28T22:59:59.557Z,0.54
2019-01-28T23:02:30.678Z,0.50
2019-01-28T23:05:01.836Z,0.56
2019-01-28T23:07:32.811Z,0.59
2019-01-28T23:10:04.544Z,0.58
2019-01-28T23:12:35.578Z,0.65
2019-01-28T23:15:08.675Z,0.59
2019-01-28T23:17:39.827Z,0.48
2019-01-28T23:20:11.083Z,0.38
2019-01-28T23:22:42.217Z,0.36
2019-01-28T23:25:13.359Z,0.38
2019-01-28T23:27:44.774Z,0.45
2019-01-28T23:30:16.147Z,0.33
2019-01-28T23:32:47.326Z,0.34
2019-01-28T23:35:18.526Z,0.33
2019-01-28T23:37:49.574Z,0.35
2019-01-28T23:40:20.639Z,0.35
2019-01-28T23:42:53.701Z,0.45
2019-01-28T23:45:24.847Z,0.42
2019-01-28T23:47:55.934Z,0.45
2019-01-28T23:50:27.010Z,0.45
2019-01-28T23:52:58.150Z,0.50
2019-01-28T23:55:29.305Z,0.57
2019-01-28T23:58:00.502Z,0.54
